Time;durP1;ratioP1;P1;durP2;ratioP2;P2;SDS_P1;SDS_P2;PMS_P1;PMS_P2;Temp;Humidity;BMP_temperature;BMP_pressure;BME280_temperature;BME280_humidity;BME280_pressure;Samples;Min_cycle;Max_cycle;Signal;HPM_P1;HPM_P2
2021/09/22 00:01:06;;;;;;;23.15;15.85;;;;;;;;;;5054546;28;20020;-65
2021/09/22 00:03:31;;;;;;;21.52;15.82;;;;;;;;;;5048071;28;20115;-64
2021/09/22 00:05:56;;;;;;;23.15;16.65;;;;;;;;;;5059488;28;20035;-65
2021/09/22 00:08:21;;;;;;;22.95;16.35;;;;;;;;;;5057485;28;20220;-65
2021/09/22 00:10:46;;;;;;;22.70;14.77;;;;;;;;;;5058638;28;20029;-64
2021/09/22 00:13:12;;;;;;;21.02;15.45;;;;;;;;;;5065080;28;20130;-64
2021/09/22 00:15:37;;;;;;;23.15;16.73;;;;;;;;;;5054881;28;20032;-65
2021/09/22 00:18:02;;;;;;;23.08;16.20;;;;;;;;;;5053966;28;20388;-65
2021/09/22 00:20:28;;;;;;;23.42;16.00;;;;;;;;;;5054018;28;20596;-64
2021/09/22 00:22:58;;;;;;;22.63;16.42;;;;;;;;;;5058324;28;20125;-65
2021/09/22 00:25:23;;;;;;;28.58;16.83;;;;;;;;;;5066295;28;20035;-64
2021/09/22 00:27:48;;;;;;;25.73;15.45;;;;;;;;;;5059157;28;20028;-65
2021/09/22 00:30:14;;;;;;;26.98;16.45;;;;;;;;;;5060614;28;20131;-64
2021/09/22 00:32:40;;;;;;;22.80;15.20;;;;;;;;;;5061153;28;20039;-64
2021/09/22 00:35:06;;;;;;;19.63;13.93;;;;;;;;;;5056708;28;20360;-65
2021/09/22 00:37:31;;;;;;;22.77;15.40;;;;;;;;;;5059045;28;20024;-65
2021/09/22 00:39:56;;;;;;;21.25;15.25;;;;;;;;;;5063765;28;20025;-65
2021/09/22 00:42:22;;;;;;;21.67;15.48;;;;;;;;;;5058346;28;20028;-64
2021/09/22 00:44:47;;;;;;;20.20;15.00;;;;;;;;;;5061904;28;20029;-64
2021/09/22 00:47:13;;;;;;;20.60;14.95;;;;;;;;;;5058929;28;20079;-65
2021/09/22 00:49:38;;;;;;;19.08;14.30;;;;;;;;;;5052983;28;20314;-64
2021/09/22 00:52:04;;;;;;;21.80;15.32;;;;;;;;;;5057284;28;20128;-64
2021/09/22 00:54:29;;;;;;;20.40;14.65;;;;;;;;;;5055174;28;20060;-64
2021/09/22 00:56:54;;;;;;;20.75;14.18;;;;;;;;;;5057163;28;20024;-65
2021/09/22 00:59:19;;;;;;;19.80;14.27;;;;;;;;;;5053024;28;20630;-65
2021/09/22 01:01:49;;;;;;;24.50;14.25;;;;;;;;;;5059600;28;20020;-65
2021/09/22 01:04:14;;;;;;;20.33;13.75;;;;;;;;;;5063044;28;20111;-63
2021/09/22 01:06:40;;;;;;;18.15;12.60;;;;;;;;;;5056218;28;20140;-64
2021/09/22 01:09:05;;;;;;;18.50;13.63;;;;;;;;;;5059929;28;20028;-65
2021/09/22 01:11:33;;;;;;;18.73;13.40;;;;;;;;;;5063140;28;20020;-65
2021/09/22 01:13:59;;;;;;;20.02;13.60;;;;;;;;;;5065756;28;20032;-65
2021/09/22 01:16:24;;;;;;;24.23;14.68;;;;;;;;;;5057698;28;20029;-64
2021/09/22 01:18:49;;;;;;;21.52;14.73;;;;;;;;;;5055726;28;20024;-64
2021/09/22 01:21:18;;;;;;;21.15;14.57;;;;;;;;;;5052761;28;20021;-64
2021/09/22 01:23:43;;;;;;;19.35;14.13;;;;;;;;;;5055821;28;20032;-63
2021/09/22 01:26:08;;;;;;;22.13;15.35;;;;;;;;;;5052727;28;20028;-64
2021/09/22 01:28:33;;;;;;;20.73;14.80;;;;;;;;;;5055724;28;20060;-64
2021/09/22 01:31:00;;;;;;;19.35;14.50;;;;;;;;;;5063386;28;20107;-65
2021/09/22 01:33:25;;;;;;;18.95;13.25;;;;;;;;;;5071442;28;20052;-64
2021/09/22 01:35:50;;;;;;;22.52;15.10;;;;;;;;;;5058824;28;20049;-64
2021/09/22 01:38:20;;;;;;;20.45;14.02;;;;;;;;;;5060616;28;20024;-65
2021/09/22 01:40:53;;;;;;;22.40;14.40;;;;;;;;;;5053339;28;20029;-65
2021/09/22 01:43:18;;;;;;;21.73;16.23;;;;;;;;;;5067862;28;20024;-65
2021/09/22 01:45:44;;;;;;;22.65;15.55;;;;;;;;;;5058263;28;20139;-64
2021/09/22 01:48:09;;;;;;;23.08;16.25;;;;;;;;;;5057282;28;20048;-64
2021/09/22 01:50:34;;;;;;;20.92;13.80;;;;;;;;;;5065205;28;20025;-65
2021/09/22 01:52:59;;;;;;;19.35;13.43;;;;;;;;;;5051734;28;20044;-65
2021/09/22 01:55:24;;;;;;;18.27;12.88;;;;;;;;;;5059309;28;20058;-64
2021/09/22 01:57:50;;;;;;;18.73;13.88;;;;;;;;;;5056683;28;20422;-65
2021/09/22 02:00:15;;;;;;;21.08;14.45;;;;;;;;;;5057252;28;20021;-64
2021/09/22 02:02:41;;;;;;;18.75;13.95;;;;;;;;;;5065832;28;20037;-64
2021/09/22 02:05:06;;;;;;;20.70;14.43;;;;;;;;;;5060608;28;20024;-65
2021/09/22 02:07:32;;;;;;;22.73;14.45;;;;;;;;;;5054270;28;20028;-64
2021/09/22 02:09:58;;;;;;;20.25;14.10;;;;;;;;;;5061846;28;20052;-64
2021/09/22 02:12:24;;;;;;;19.05;13.30;;;;;;;;;;5054544;28;20486;-64
2021/09/22 02:14:49;;;;;;;20.30;13.70;;;;;;;;;;5052327;28;20729;-64
2021/09/22 02:17:14;;;;;;;18.70;13.45;;;;;;;;;;5058824;28;20041;-64
2021/09/22 02:19:39;;;;;;;19.70;13.52;;;;;;;;;;5064214;28;20020;-64
2021/09/22 02:22:04;;;;;;;18.27;13.63;;;;;;;;;;5053159;28;20104;-64
2021/09/22 02:24:29;;;;;;;19.52;14.05;;;;;;;;;;5063584;28;20166;-64
2021/09/22 02:26:55;;;;;;;21.83;14.77;;;;;;;;;;5054791;28;20059;-64
2021/09/22 02:29:20;;;;;;;16.75;12.68;;;;;;;;;;5059863;28;20108;-64
2021/09/22 02:31:48;;;;;;;18.80;12.10;;;;;;;;;;5055857;28;20029;-64
2021/09/22 02:34:13;;;;;;;17.88;13.13;;;;;;;;;;5057291;28;20121;-65
2021/09/22 02:36:39;;;;;;;19.52;13.70;;;;;;;;;;5051328;28;20123;-64
2021/09/22 02:39:04;;;;;;;19.25;13.48;;;;;;;;;;5065330;28;20031;-64
2021/09/22 02:41:29;;;;;;;18.45;13.10;;;;;;;;;;5054969;28;20025;-65
2021/09/22 02:43:54;;;;;;;19.02;13.90;;;;;;;;;;5058633;28;20551;-64
2021/09/22 02:46:20;;;;;;;19.48;13.38;;;;;;;;;;5057036;28;20025;-64
2021/09/22 02:48:45;;;;;;;17.63;13.38;;;;;;;;;;5056337;28;20090;-64
2021/09/22 02:51:10;;;;;;;18.73;13.38;;;;;;;;;;5055991;28;20048;-64
2021/09/22 02:53:35;;;;;;;18.92;13.23;;;;;;;;;;5052440;28;20072;-63
2021/09/22 02:56:00;;;;;;;17.83;13.13;;;;;;;;;;5056296;28;20404;-64
2021/09/22 02:58:25;;;;;;;22.08;14.48;;;;;;;;;;5056326;28;20375;-64
2021/09/22 03:00:51;;;;;;;20.58;13.55;;;;;;;;;;5062400;28;20348;-65
2021/09/22 03:03:16;;;;;;;19.15;13.93;;;;;;;;;;5064712;28;20016;-64
2021/09/22 03:05:41;;;;;;;19.40;14.70;;;;;;;;;;5054003;28;20039;-63
2021/09/22 03:08:06;;;;;;;19.13;14.02;;;;;;;;;;5056595;28;20091;-65
2021/09/22 03:10:32;;;;;;;18.55;13.13;;;;;;;;;;5050625;28;20051;-65
2021/09/22 03:12:58;;;;;;;19.80;13.85;;;;;;;;;;5054047;28;20111;-64
2021/09/22 03:15:23;;;;;;;18.17;13.68;;;;;;;;;;5057075;28;20421;-64
2021/09/22 03:17:48;;;;;;;18.95;13.57;;;;;;;;;;5058857;28;20108;-64
2021/09/22 03:20:13;;;;;;;19.85;13.57;;;;;;;;;;5059941;28;20166;-64
2021/09/22 03:22:38;;;;;;;19.02;12.80;;;;;;;;;;5060565;28;20020;-65
2021/09/22 03:25:05;;;;;;;19.73;13.77;;;;;;;;;;5055235;28;20021;-66
2021/09/22 03:27:30;;;;;;;18.70;13.30;;;;;;;;;;5051161;28;20105;-64
2021/09/22 03:29:55;;;;;;;19.13;13.55;;;;;;;;;;5058054;28;20121;-65
2021/09/22 03:32:20;;;;;;;19.25;13.32;;;;;;;;;;5054725;28;20019;-65
2021/09/22 03:34:45;;;;;;;23.40;16.20;;;;;;;;;;5062527;28;20048;-65
2021/09/22 03:37:11;;;;;;;18.42;13.52;;;;;;;;;;5064326;28;20345;-65
2021/09/22 03:39:36;;;;;;;18.80;13.75;;;;;;;;;;5058339;28;20070;-66
2021/09/22 03:42:01;;;;;;;22.95;14.52;;;;;;;;;;5057877;28;20491;-64
2021/09/22 03:44:26;;;;;;;24.00;15.60;;;;;;;;;;5058734;28;20025;-65
2021/09/22 03:46:55;;;;;;;23.90;15.70;;;;;;;;;;5056171;28;20034;-64
2021/09/22 03:49:20;;;;;;;21.98;15.45;;;;;;;;;;5054513;28;20063;-64
2021/09/22 03:51:46;;;;;;;23.13;15.15;;;;;;;;;;5058428;28;20045;-64
2021/09/22 03:54:11;;;;;;;20.27;14.13;;;;;;;;;;5057697;28;20032;-64
2021/09/22 03:56:36;;;;;;;19.67;13.77;;;;;;;;;;5058205;28;20032;-65
2021/09/22 03:59:01;;;;;;;22.30;15.38;;;;;;;;;;5062511;28;20115;-64
2021/09/22 04:01:27;;;;;;;22.45;15.48;;;;;;;;;;5059486;28;20025;-64
2021/09/22 04:03:52;;;;;;;24.63;17.08;;;;;;;;;;5055193;28;20064;-65
2021/09/22 04:06:17;;;;;;;24.15;16.15;;;;;;;;;;5054720;28;20021;-64
2021/09/22 04:08:42;;;;;;;25.77;16.33;;;;;;;;;;5054231;28;20036;-64
2021/09/22 04:11:08;;;;;;;22.15;15.75;;;;;;;;;;5051292;28;20392;-65
2021/09/22 04:13:33;;;;;;;25.77;16.50;;;;;;;;;;5053863;28;20135;-64
2021/09/22 04:15:58;;;;;;;25.75;16.33;;;;;;;;;;5061090;28;20029;-65
2021/09/22 04:18:23;;;;;;;23.73;15.93;;;;;;;;;;5058673;28;20036;-65
2021/09/22 04:20:48;;;;;;;23.35;16.50;;;;;;;;;;5059855;28;20025;-65
2021/09/22 04:23:14;;;;;;;23.67;16.13;;;;;;;;;;5065386;28;20031;-66
2021/09/22 04:25:39;;;;;;;23.95;16.52;;;;;;;;;;5054549;28;20052;-64
2021/09/22 04:28:04;;;;;;;22.42;15.38;;;;;;;;;;5054096;28;20037;-65
2021/09/22 04:30:30;;;;;;;21.13;14.82;;;;;;;;;;5059361;28;20030;-65
2021/09/22 04:32:55;;;;;;;23.98;16.02;;;;;;;;;;5056950;28;20037;-65
2021/09/22 04:35:20;;;;;;;26.63;16.45;;;;;;;;;;5054970;28;20021;-64
2021/09/22 04:37:47;;;;;;;24.67;15.80;;;;;;;;;;5053959;28;20029;-65
2021/09/22 04:40:12;;;;;;;24.30;16.27;;;;;;;;;;5051761;28;20513;-66
2021/09/22 04:42:38;;;;;;;25.17;16.27;;;;;;;;;;5054224;28;20012;-65
2021/09/22 04:45:04;;;;;;;26.92;16.27;;;;;;;;;;5056321;28;20036;-64
2021/09/22 04:47:29;;;;;;;23.52;16.00;;;;;;;;;;5060389;28;20517;-65
2021/09/22 04:49:55;;;;;;;21.33;16.27;;;;;;;;;;5061925;28;20047;-65
2021/09/22 04:52:21;;;;;;;24.10;15.85;;;;;;;;;;5056377;28;20071;-65
2021/09/22 04:54:46;;;;;;;23.42;14.98;;;;;;;;;;5049317;28;20049;-65
2021/09/22 04:57:11;;;;;;;23.52;15.45;;;;;;;;;;5057272;28;20025;-65
2021/09/22 04:59:36;;;;;;;22.67;14.75;;;;;;;;;;5050981;28;20778;-64
2021/09/22 05:02:01;;;;;;;24.83;16.40;;;;;;;;;;5061867;28;20021;-60
2021/09/22 05:04:27;;;;;;;23.35;16.17;;;;;;;;;;5054543;28;20735;-60
2021/09/22 05:06:52;;;;;;;23.77;15.32;;;;;;;;;;5055547;28;20476;-60
2021/09/22 05:09:17;;;;;;;24.30;16.80;;;;;;;;;;5067835;28;20274;-60
2021/09/22 05:11:43;;;;;;;25.18;16.48;;;;;;;;;;5062576;28;20032;-60
2021/09/22 05:14:08;;;;;;;23.52;15.68;;;;;;;;;;5071087;28;20836;-62
2021/09/22 05:16:33;;;;;;;22.65;15.52;;;;;;;;;;5060184;28;20053;-60
2021/09/22 05:18:58;;;;;;;23.33;15.73;;;;;;;;;;5064116;28;20860;-60
2021/09/22 05:21:24;;;;;;;22.08;14.48;;;;;;;;;;5054011;28;20070;-61
2021/09/22 05:23:49;;;;;;;22.27;15.02;;;;;;;;;;5067313;28;20039;-61
2021/09/22 05:26:14;;;;;;;23.15;15.75;;;;;;;;;;5063951;28;20149;-60
2021/09/22 05:28:39;;;;;;;23.42;15.75;;;;;;;;;;5056357;28;20531;-61
2021/09/22 05:31:04;;;;;;;27.08;15.25;;;;;;;;;;5058947;28;20039;-61
2021/09/22 05:33:29;;;;;;;21.55;14.55;;;;;;;;;;5062015;28;20029;-59
2021/09/22 05:35:55;;;;;;;21.33;14.48;;;;;;;;;;5051732;28;20553;-59
2021/09/22 05:38:20;;;;;;;22.55;14.82;;;;;;;;;;5057282;28;20023;-60
2021/09/22 05:40:45;;;;;;;24.35;15.40;;;;;;;;;;5055742;28;20056;-62
2021/09/22 05:43:10;;;;;;;21.88;14.30;;;;;;;;;;5051659;28;20043;-61
2021/09/22 05:45:35;;;;;;;21.88;14.48;;;;;;;;;;5063805;28;20130;-61
2021/09/22 05:48:01;;;;;;;23.88;14.80;;;;;;;;;;5061036;28;20013;-60
2021/09/22 05:50:26;;;;;;;23.88;15.45;;;;;;;;;;5064876;28;20237;-60
2021/09/22 05:52:51;;;;;;;23.17;15.05;;;;;;;;;;5051880;28;20411;-60
2021/09/22 05:55:17;;;;;;;23.65;14.90;;;;;;;;;;5056943;28;20473;-61
2021/09/22 05:57:42;;;;;;;21.50;14.80;;;;;;;;;;5053166;28;20017;-61
2021/09/22 06:00:08;;;;;;;21.42;14.35;;;;;;;;;;5059933;28;20279;-60
2021/09/22 06:02:33;;;;;;;22.85;14.23;;;;;;;;;;5057673;28;20742;-60
2021/09/22 06:04:58;;;;;;;20.25;12.98;;;;;;;;;;5053921;28;20079;-60
2021/09/22 06:07:23;;;;;;;21.05;13.90;;;;;;;;;;5053622;28;20456;-60
2021/09/22 06:09:49;;;;;;;22.38;14.55;;;;;;;;;;5056811;28;20037;-60
2021/09/22 06:12:14;;;;;;;23.13;14.60;;;;;;;;;;5059527;28;20567;-61
2021/09/22 06:14:39;;;;;;;20.80;14.32;;;;;;;;;;5055707;28;20036;-59
2021/09/22 06:17:04;;;;;;;22.50;14.32;;;;;;;;;;5065112;28;20067;-60
2021/09/22 06:19:29;;;;;;;22.08;14.90;;;;;;;;;;5060114;28;20024;-60
2021/09/22 06:21:55;;;;;;;23.35;15.85;;;;;;;;;;5070662;28;20016;-60
2021/09/22 06:24:20;;;;;;;20.08;14.48;;;;;;;;;;5059373;28;20032;-61
2021/09/22 06:26:45;;;;;;;20.50;15.35;;;;;;;;;;5055918;28;20021;-59
2021/09/22 06:29:11;;;;;;;21.77;15.55;;;;;;;;;;5055715;28;20029;-60
2021/09/22 06:31:37;;;;;;;24.98;16.85;;;;;;;;;;5063938;28;20024;-60
2021/09/22 06:34:02;;;;;;;23.52;15.90;;;;;;;;;;5056344;28;20091;-60
2021/09/22 06:36:27;;;;;;;27.77;17.30;;;;;;;;;;5058310;28;20036;-59
2021/09/22 06:38:53;;;;;;;24.27;15.60;;;;;;;;;;5054496;28;20036;-61
2021/09/22 06:41:18;;;;;;;23.70;16.05;;;;;;;;;;5055731;28;20404;-61
2021/09/22 06:43:43;;;;;;;23.30;17.02;;;;;;;;;;5051121;28;20037;-60
2021/09/22 06:46:08;;;;;;;23.50;17.42;;;;;;;;;;5058954;28;20473;-60
2021/09/22 06:48:33;;;;;;;25.95;16.35;;;;;;;;;;5055872;28;20075;-60
2021/09/22 06:50:58;;;;;;;25.08;15.88;;;;;;;;;;5062005;28;20048;-61
2021/09/22 06:53:24;;;;;;;24.10;15.98;;;;;;;;;;5050241;28;20058;-60
2021/09/22 06:55:49;;;;;;;20.05;15.27;;;;;;;;;;5051346;28;20025;-60
2021/09/22 06:58:14;;;;;;;20.25;14.68;;;;;;;;;;5052592;28;20103;-61
2021/09/22 07:00:39;;;;;;;18.08;13.55;;;;;;;;;;5054878;28;20052;-61
2021/09/22 07:03:11;;;;;;;21.55;14.18;;;;;;;;;;5058040;28;20278;-61
2021/09/22 07:05:38;;;;;;;19.90;15.00;;;;;;;;;;5049901;28;20017;-61
2021/09/22 07:08:03;;;;;;;21.77;14.90;;;;;;;;;;5050102;28;20025;-60
2021/09/22 07:10:31;;;;;;;20.05;14.90;;;;;;;;;;5049942;28;20021;-60
2021/09/22 07:12:56;;;;;;;22.08;14.50;;;;;;;;;;5050257;28;20777;-61
2021/09/22 07:15:21;;;;;;;19.67;14.25;;;;;;;;;;5052376;28;20021;-60
2021/09/22 07:17:46;;;;;;;17.33;13.25;;;;;;;;;;5053102;28;20032;-59
2021/09/22 07:20:12;;;;;;;17.90;13.52;;;;;;;;;;5055512;28;20013;-60
2021/09/22 07:22:37;;;;;;;19.30;14.27;;;;;;;;;;5049830;28;20166;-61
2021/09/22 07:25:03;;;;;;;19.73;14.27;;;;;;;;;;5062065;28;20033;-61
2021/09/22 07:27:28;;;;;;;18.40;13.85;;;;;;;;;;5053812;28;20086;-60
2021/09/22 07:29:55;;;;;;;16.73;13.13;;;;;;;;;;5049783;28;20020;-61
2021/09/22 07:32:20;;;;;;;18.25;12.70;;;;;;;;;;5062167;28;20031;-60
2021/09/22 07:34:45;;;;;;;18.00;14.60;;;;;;;;;;5051420;28;20040;-60
2021/09/22 07:37:11;;;;;;;21.45;14.00;;;;;;;;;;5052789;28;20036;-60
2021/09/22 07:39:38;;;;;;;16.63;12.98;;;;;;;;;;5054038;28;20029;-61
2021/09/22 07:42:03;;;;;;;16.80;12.68;;;;;;;;;;5051673;28;20439;-60
2021/09/22 07:44:29;;;;;;;17.70;12.52;;;;;;;;;;5050462;28;20129;-60
2021/09/22 07:46:54;;;;;;;17.90;12.23;;;;;;;;;;5049198;28;20031;-60
2021/09/22 07:49:19;;;;;;;17.52;12.00;;;;;;;;;;5056422;28;20027;-61
2021/09/22 07:51:44;;;;;;;14.88;10.85;;;;;;;;;;5050284;28;20057;-59
2021/09/22 07:54:09;;;;;;;14.90;10.50;;;;;;;;;;5056004;28;20144;-61
2021/09/22 07:56:35;;;;;;;21.98;11.85;;;;;;;;;;5057717;28;20056;-61
2021/09/22 07:59:00;;;;;;;16.88;12.68;;;;;;;;;;5049793;28;20039;-60
2021/09/22 08:01:25;;;;;;;13.77;10.57;;;;;;;;;;5049305;28;20024;-61
2021/09/22 08:03:50;;;;;;;16.60;12.63;;;;;;;;;;5049241;28;20028;-61
2021/09/22 08:06:15;;;;;;;19.33;12.90;;;;;;;;;;5057811;28;20108;-60
2021/09/22 08:08:41;;;;;;;15.00;11.80;;;;;;;;;;5053177;28;20112;-61
2021/09/22 08:11:06;;;;;;;13.93;11.90;;;;;;;;;;5049494;28;20021;-61
2021/09/22 08:13:31;;;;;;;15.00;11.32;;;;;;;;;;5064909;28;20665;-61
2021/09/22 08:15:56;;;;;;;16.38;12.45;;;;;;;;;;5063138;28;20028;-61
2021/09/22 08:18:21;;;;;;;17.77;11.27;;;;;;;;;;5053823;28;20024;-60
2021/09/22 08:20:47;;;;;;;13.05;10.55;;;;;;;;;;5062949;28;20030;-60
2021/09/22 08:23:12;;;;;;;13.52;9.95;;;;;;;;;;5050520;28;20021;-60
2021/09/22 08:25:37;;;;;;;12.82;10.18;;;;;;;;;;5067990;28;20035;-61
2021/09/22 08:28:03;;;;;;;13.63;10.60;;;;;;;;;;5066188;28;20053;-61
2021/09/22 08:30:28;;;;;;;11.63;10.02;;;;;;;;;;5054407;28;20025;-61
2021/09/22 08:32:53;;;;;;;13.48;10.35;;;;;;;;;;5048262;28;20039;-61
2021/09/22 08:35:18;;;;;;;12.13;10.05;;;;;;;;;;5048755;28;20017;-61
2021/09/22 08:37:43;;;;;;;11.82;9.82;;;;;;;;;;5048271;28;20014;-60
2021/09/22 08:40:09;;;;;;;10.95;9.65;;;;;;;;;;5053116;28;20032;-60
2021/09/22 08:42:34;;;;;;;13.20;8.98;;;;;;;;;;5069900;28;20373;-61
2021/09/22 08:45:00;;;;;;;11.40;9.50;;;;;;;;;;5072081;28;20151;-60
2021/09/22 08:47:25;;;;;;;13.20;9.82;;;;;;;;;;5071641;28;20028;-60
2021/09/22 08:49:51;;;;;;;12.70;9.30;;;;;;;;;;5070262;28;20025;-60
2021/09/22 08:52:16;;;;;;;13.25;9.02;;;;;;;;;;5071530;28;20407;-59
2021/09/22 08:54:42;;;;;;;12.17;10.40;;;;;;;;;;5070253;28;20071;-61
2021/09/22 08:57:07;;;;;;;15.13;10.80;;;;;;;;;;5071579;28;20382;-60
2021/09/22 08:59:32;;;;;;;13.45;10.00;;;;;;;;;;5071059;28;20090;-62
2021/09/22 09:02:06;;;;;;;13.82;10.60;;;;;;;;;;5069974;28;20078;-61
2021/09/22 09:04:32;;;;;;;10.70;8.70;;;;;;;;;;5056935;28;20057;-61
2021/09/22 09:06:57;;;;;;;11.05;8.95;;;;;;;;;;5052210;28;20397;-61
2021/09/22 09:09:36;;;;;;;11.23;8.88;;;;;;;;;;5052558;28;20025;-61
2021/09/22 09:12:01;;;;;;;10.70;8.30;;;;;;;;;;5053982;28;20025;-61
2021/09/22 09:14:31;;;;;;;12.05;8.18;;;;;;;;;;5052166;28;20381;-61
2021/09/22 09:16:59;;;;;;;;;;;;;;;;;;5052833;28;20021;-60
2021/09/22 09:19:25;;;;;;;9.93;8.05;;;;;;;;;;5051988;28;19908;-60
2021/09/22 09:22:05;;;;;;;12.55;9.30;;;;;;;;;;5054503;28;20036;-60
2021/09/22 09:24:41;;;;;;;12.98;8.18;;;;;;;;;;5062340;28;20099;-60
2021/09/22 09:27:08;;;;;;;9.82;7.72;;;;;;;;;;5070854;28;20020;-60
2021/09/22 09:29:33;;;;;;;9.65;8.05;;;;;;;;;;5071341;28;20035;-60
2021/09/22 09:32:10;;;;;;;10.38;8.45;;;;;;;;;;5066779;28;20021;-60
2021/09/22 09:34:36;;;;;;;10.20;7.32;;;;;;;;;;5062250;28;20037;-60
2021/09/22 09:37:01;;;;;;;10.85;7.47;;;;;;;;;;5051434;28;20025;-61
2021/09/22 09:39:29;;;;;;;9.10;6.38;;;;;;;;;;5051747;28;20400;-61
2021/09/22 09:41:55;;;;;;;6.68;4.78;;;;;;;;;;5051561;28;20063;-61
2021/09/22 09:44:25;;;;;;;9.23;6.80;;;;;;;;;;5054939;28;20032;-60
2021/09/22 09:46:51;;;;;;;7.97;5.10;;;;;;;;;;5051474;28;20078;-61
2021/09/22 09:49:18;;;;;;;6.10;4.15;;;;;;;;;;5051533;28;20138;-61
2021/09/22 09:51:47;;;;;;;5.55;4.25;;;;;;;;;;5051159;28;20047;-60
2021/09/22 09:54:15;;;;;;;7.03;5.00;;;;;;;;;;5055386;28;20500;-61
2021/09/22 09:56:40;;;;;;;6.25;4.88;;;;;;;;;;5070484;28;20504;-61
2021/09/22 09:59:05;;;;;;;7.30;4.75;;;;;;;;;;5070779;28;20157;-60
2021/09/22 10:01:34;;;;;;;6.10;4.70;;;;;;;;;;5065273;28;20040;-60
2021/09/22 10:04:00;;;;;;;7.47;5.22;;;;;;;;;;5056136;28;20029;-60
2021/09/22 10:06:25;;;;;;;8.35;4.47;;;;;;;;;;5050716;28;20029;-60
2021/09/22 10:08:50;;;;;;;5.50;4.50;;;;;;;;;;5051353;28;20025;-60
2021/09/22 10:11:15;;;;;;;8.40;4.95;;;;;;;;;;5052593;28;20033;-61
2021/09/22 10:13:41;;;;;;;8.25;5.13;;;;;;;;;;5055605;28;20292;-61
2021/09/22 10:16:06;;;;;;;7.15;4.80;;;;;;;;;;5051068;28;20422;-61
2021/09/22 10:18:31;;;;;;;6.18;4.68;;;;;;;;;;5050695;28;20496;-60
2021/09/22 10:20:57;;;;;;;6.00;4.03;;;;;;;;;;5051143;28;20428;-60
2021/09/22 10:23:22;;;;;;;5.10;2.92;;;;;;;;;;5061789;28;20895;-61
2021/09/22 10:25:48;;;;;;;7.80;3.90;;;;;;;;;;5070588;28;20460;-60
2021/09/22 10:28:13;;;;;;;6.38;3.58;;;;;;;;;;5069835;28;20055;-61
2021/09/22 10:30:40;;;;;;;5.57;3.33;;;;;;;;;;5070022;28;20020;-61
2021/09/22 10:33:06;;;;;;;6.00;4.38;;;;;;;;;;5062139;28;20397;-61
2021/09/22 10:35:35;;;;;;;8.25;4.78;;;;;;;;;;5050439;28;20025;-61
2021/09/22 10:38:01;;;;;;;;;;;;;;;;;;5052589;28;20059;-60
2021/09/22 10:40:36;;;;;;;7.45;5.53;;;;;;;;;;5052257;28;19948;-61
2021/09/22 10:43:13;;;;;;;7.43;4.75;;;;;;;;;;5052106;28;20123;-61
2021/09/22 10:45:39;;;;;;;7.32;4.88;;;;;;;;;;5050560;28;20450;-60
2021/09/22 10:48:17;;;;;;;6.97;4.53;;;;;;;;;;5050222;28;20095;-60
2021/09/22 10:50:44;;;;;;;7.00;4.43;;;;;;;;;;5063718;28;20020;-60
2021/09/22 10:53:28;;;;;;;5.53;3.50;;;;;;;;;;5061909;28;20045;-59
2021/09/22 10:56:08;;;;;;;7.07;4.80;;;;;;;;;;5052120;28;20032;-60
2021/09/22 10:58:38;;;;;;;6.63;4.63;;;;;;;;;;5052894;28;20025;-61
2021/09/22 11:01:03;;;;;;;;;;;;;;;;;;5050470;28;20028;-60
2021/09/22 11:03:47;;;;;;;8.30;5.40;;;;;;;;;;5052572;28;19957;-61
2021/09/22 11:06:35;;;;;;;6.47;4.80;;;;;;;;;;5049755;28;20499;-60
2021/09/22 11:09:06;;;;;;;7.40;4.45;;;;;;;;;;5064500;28;20013;-61
2021/09/22 11:11:50;;;;;;;8.02;4.10;;;;;;;;;;5069235;28;20024;-60
2021/09/22 11:14:30;;;;;;;7.45;4.45;;;;;;;;;;5063108;28;20106;-60
2021/09/22 11:16:56;;;;;;;7.07;4.60;;;;;;;;;;5049830;28;20053;-60
2021/09/22 11:19:22;;;;;;;7.85;5.28;;;;;;;;;;5049738;28;20449;-60
2021/09/22 11:21:48;;;;;;;8.35;5.03;;;;;;;;;;5050005;28;20472;-61
2021/09/22 11:24:15;;;;;;;8.70;5.07;;;;;;;;;;5051685;28;20749;-61
2021/09/22 11:26:50;;;;;;;10.98;5.80;;;;;;;;;;5051694;28;20551;-60
2021/09/22 11:29:29;;;;;;;11.73;6.43;;;;;;;;;;5049768;28;20372;-61
2021/09/22 11:31:54;;;;;;;6.97;5.03;;;;;;;;;;5056097;28;20029;-60
2021/09/22 11:34:26;;;;;;;8.02;5.65;;;;;;;;;;5049229;28;20090;-60
2021/09/22 11:37:05;;;;;;;9.65;5.53;;;;;;;;;;5054129;28;20027;-60
2021/09/22 11:39:30;;;;;;;8.30;5.35;;;;;;;;;;5062690;28;20495;-60
2021/09/22 11:41:56;;;;;;;11.25;6.97;;;;;;;;;;5068217;28;20035;-60
2021/09/22 11:44:25;;;;;;;9.50;7.88;;;;;;;;;;5068562;28;20028;-61
2021/09/22 11:46:53;;;;;;;9.73;7.27;;;;;;;;;;5060263;28;20348;-60
2021/09/22 11:49:19;;;;;;;9.13;7.15;;;;;;;;;;5048662;28;20052;-61
2021/09/22 11:51:44;;;;;;;10.65;6.97;;;;;;;;;;5048171;28;20468;-61
2021/09/22 11:54:19;;;;;;;8.90;6.97;;;;;;;;;;5048772;28;20567;-60
2021/09/22 11:56:44;;;;;;;11.43;6.82;;;;;;;;;;5055625;28;20661;-60
2021/09/22 11:59:10;;;;;;;12.20;7.15;;;;;;;;;;5048369;28;20016;-61
2021/09/22 12:01:35;;;;;;;8.43;6.28;;;;;;;;;;5052665;28;20107;-60
2021/09/22 12:04:00;;;;;;;10.15;6.57;;;;;;;;;;5056951;28;20104;-61
2021/09/22 12:06:26;;;;;;;10.13;6.57;;;;;;;;;;5055431;28;20021;-60
2021/09/22 12:08:53;;;;;;;9.00;6.10;;;;;;;;;;5050899;28;20049;-59
2021/09/22 12:11:19;;;;;;;9.90;6.25;;;;;;;;;;5057060;28;20625;-60
2021/09/22 12:13:46;;;;;;;8.23;6.30;;;;;;;;;;5054405;28;20408;-60
2021/09/22 12:16:11;;;;;;;9.88;5.50;;;;;;;;;;5058263;28;20040;-60
2021/09/22 12:18:40;;;;;;;8.25;5.45;;;;;;;;;;5050874;28;20479;-60
2021/09/22 12:21:06;;;;;;;6.68;4.80;;;;;;;;;;5048763;28;20041;-60
2021/09/22 12:23:33;;;;;;;7.63;5.25;;;;;;;;;;5052099;28;20024;-60
2021/09/22 12:26:05;;;;;;;6.10;4.13;;;;;;;;;;5050348;28;20025;-61
2021/09/22 12:28:30;;;;;;;7.43;4.30;;;;;;;;;;5057849;28;20020;-59
2021/09/22 12:30:56;;;;;;;6.20;4.00;;;;;;;;;;5054047;28;20054;-60
2021/09/22 12:33:21;;;;;;;6.73;3.93;;;;;;;;;;5062874;28;20989;-59
2021/09/22 12:35:47;;;;;;;5.57;3.78;;;;;;;;;;5053077;28;20379;-60
2021/09/22 12:38:14;;;;;;;5.97;4.43;;;;;;;;;;5064630;28;20099;-61
2021/09/22 12:40:41;;;;;;;8.48;4.07;;;;;;;;;;5049278;28;20352;-60
2021/09/22 12:43:25;;;;;;;4.97;3.08;;;;;;;;;;5055472;28;20082;-60
2021/09/22 12:45:51;;;;;;;5.55;3.38;;;;;;;;;;5053129;28;20457;-60
2021/09/22 12:48:23;;;;;;;6.47;3.65;;;;;;;;;;5053343;28;20118;-60
2021/09/22 12:50:49;;;;;;;6.63;3.97;;;;;;;;;;5048061;28;20436;-60
2021/09/22 12:53:15;;;;;;;5.25;3.65;;;;;;;;;;5059913;28;20127;-60
2021/09/22 12:55:48;;;;;;;7.38;3.60;;;;;;;;;;5061208;28;20597;-60
2021/09/22 12:58:21;;;;;;;5.35;3.60;;;;;;;;;;5050710;28;20043;-61
2021/09/22 13:00:49;;;;;;;6.53;3.88;;;;;;;;;;5048288;28;20090;-59
2021/09/22 13:03:16;;;;;;;6.00;3.78;;;;;;;;;;5052467;28;20021;-60
2021/09/22 13:05:49;;;;;;;5.53;3.88;;;;;;;;;;5059209;28;20040;-60
2021/09/22 13:08:15;;;;;;;6.07;3.80;;;;;;;;;;5053393;28;20092;-59
2021/09/22 13:11:01;;;;;;;6.32;3.45;;;;;;;;;;5058441;28;20024;-61
2021/09/22 13:13:43;;;;;;;9.43;4.43;;;;;;;;;;5053834;28;20829;-61
2021/09/22 13:16:09;;;;;;;6.68;3.70;;;;;;;;;;5054980;28;20400;-60
2021/09/22 13:18:34;;;;;;;6.65;3.67;;;;;;;;;;5048596;28;20028;-59
2021/09/22 13:21:00;;;;;;;5.53;3.40;;;;;;;;;;5056879;28;20451;-61
2021/09/22 13:23:25;;;;;;;8.25;3.97;;;;;;;;;;5057662;28;20268;-60
2021/09/22 13:25:50;;;;;;;5.18;3.40;;;;;;;;;;5052839;28;20480;-60
2021/09/22 13:28:16;;;;;;;6.53;4.00;;;;;;;;;;5052885;28;20070;-59
2021/09/22 13:30:41;;;;;;;6.22;4.03;;;;;;;;;;5058383;28;20341;-60
2021/09/22 13:33:07;;;;;;;7.57;3.70;;;;;;;;;;5054484;28;20024;-61
2021/09/22 13:35:32;;;;;;;6.37;3.00;;;;;;;;;;5051713;28;20283;-62
2021/09/22 13:37:58;;;;;;;6.53;3.53;;;;;;;;;;5051097;28;20256;-60
2021/09/22 13:40:23;;;;;;;8.75;4.15;;;;;;;;;;5053495;28;20031;-61
2021/09/22 13:42:49;;;;;;;4.22;3.13;;;;;;;;;;5055195;28;20088;-60
2021/09/22 13:45:14;;;;;;;4.97;3.50;;;;;;;;;;5055031;28;20044;-61
2021/09/22 13:47:39;;;;;;;4.90;3.40;;;;;;;;;;5057084;28;20074;-61
2021/09/22 13:50:04;;;;;;;5.60;3.40;;;;;;;;;;5051851;28;20264;-61
2021/09/22 13:52:30;;;;;;;5.00;3.10;;;;;;;;;;5055716;28;20041;-61
2021/09/22 13:54:55;;;;;;;4.85;3.40;;;;;;;;;;5050992;28;20494;-61
2021/09/22 13:57:20;;;;;;;7.20;3.47;;;;;;;;;;5051143;28;20017;-60
2021/09/22 13:59:45;;;;;;;5.75;3.90;;;;;;;;;;5054428;28;20255;-60
2021/09/22 14:02:10;;;;;;;4.87;3.47;;;;;;;;;;5050721;28;20045;-61
2021/09/22 14:04:35;;;;;;;5.38;3.08;;;;;;;;;;5056793;28;20247;-60
2021/09/22 14:07:01;;;;;;;5.27;3.43;;;;;;;;;;5051915;28;20070;-60
2021/09/22 14:09:27;;;;;;;6.10;3.53;;;;;;;;;;5055828;28;20675;-61
2021/09/22 14:11:52;;;;;;;7.13;3.65;;;;;;;;;;5050670;28;20322;-60
2021/09/22 14:14:17;;;;;;;7.90;4.05;;;;;;;;;;5052862;28;20028;-61
2021/09/22 14:16:43;;;;;;;6.53;3.10;;;;;;;;;;5050533;28;20025;-62
2021/09/22 14:19:08;;;;;;;5.97;3.00;;;;;;;;;;5050530;28;20259;-60
2021/09/22 14:21:33;;;;;;;4.95;2.80;;;;;;;;;;5052683;28;20282;-60